sensor_id;sensor_type;location;lat;lon;timestamp;temperature;humidity
4566;DHT22;2295;51.050;14.608;2023-12-20T00:01:04;4.30;99.90
4566;DHT22;2295;51.050;14.608;2023-12-20T00:03:33;4.30;99.90
4566;DHT22;2295;51.050;14.608;2023-12-20T00:06:09;4.30;99.90
4566;DHT22;2295;51.050;14.608;2023-12-20T00:08:37;4.20;99.90
4566;DHT22;2295;51.050;14.608;2023-12-20T00:11:06;4.30;99.90
4566;DHT22;2295;51.050;14.608;2023-12-20T00:13:35;4.30;99.90
4566;DHT22;2295;51.050;14.608;2023-12-20T00:16:04;4.30;99.90
4566;DHT22;2295;51.050;14.608;2023-12-20T00:18:33;4.30;99.90
4566;DHT22;2295;51.050;14.608;2023-12-20T00:21:01;4.30;99.90
4566;DHT22;2295;51.050;14.608;2023-12-20T00:23:30;4.20;99.90
4566;DHT22;2295;51.050;14.608;2023-12-20T00:25:58;4.20;99.90
4566;DHT22;2295;51.050;14.608;2023-12-20T00:28:27;4.20;99.90
4566;DHT22;2295;51.050;14.608;2023-12-20T00:30:56;4.20;99.90
4566;DHT22;2295;51.050;14.608;2023-12-20T00:33:34;4.30;99.90
4566;DHT22;2295;51.050;14.608;2023-12-20T00:36:03;4.20;99.90
4566;DHT22;2295;51.050;14.608;2023-12-20T00:38:31;4.20;99.90
4566;DHT22;2295;51.050;14.608;2023-12-20T00:40:59;4.20;99.90
4566;DHT22;2295;51.050;14.608;2023-12-20T00:43:28;4.20;99.90
4566;DHT22;2295;51.050;14.608;2023-12-20T00:45:57;4.10;99.90
4566;DHT22;2295;51.050;14.608;2023-12-20T00:48:27;4.10;99.90
4566;DHT22;2295;51.050;14.608;2023-12-20T00:50:57;4.10;99.90
4566;DHT22;2295;51.050;14.608;2023-12-20T00:53:25;4.10;99.90
4566;DHT22;2295;51.050;14.608;2023-12-20T00:55:57;4.10;99.90
4566;DHT22;2295;51.050;14.608;2023-12-20T00:58:26;4.10;99.90
4566;DHT22;2295;51.050;14.608;2023-12-20T01:00:56;4.00;99.90
4566;DHT22;2295;51.050;14.608;2023-12-20T01:03:25;4.00;99.90
4566;DHT22;2295;51.050;14.608;2023-12-20T01:05:53;4.00;99.90
4566;DHT22;2295;51.050;14.608;2023-12-20T01:08:22;4.00;99.90
4566;DHT22;2295;51.050;14.608;2023-12-20T01:10:54;4.00;99.90
4566;DHT22;2295;51.050;14.608;2023-12-20T01:13:22;4.00;99.90
4566;DHT22;2295;51.050;14.608;2023-12-20T01:15:50;4.00;99.90
4566;DHT22;2295;51.050;14.608;2023-12-20T01:18:26;3.90;99.90
4566;DHT22;2295;51.050;14.608;2023-12-20T01:21:05;3.90;99.90
4566;DHT22;2295;51.050;14.608;2023-12-20T01:23:44;3.90;99.90
4566;DHT22;2295;51.050;14.608;2023-12-20T01:26:15;3.90;99.90
4566;DHT22;2295;51.050;14.608;2023-12-20T01:28:58;3.80;99.90
4566;DHT22;2295;51.050;14.608;2023-12-20T01:31:30;3.80;99.90
4566;DHT22;2295;51.050;14.608;2023-12-20T01:34:02;3.80;99.90
4566;DHT22;2295;51.050;14.608;2023-12-20T01:36:31;3.70;99.90
4566;DHT22;2295;51.050;14.608;2023-12-20T01:38:59;3.70;99.90
4566;DHT22;2295;51.050;14.608;2023-12-20T01:41:30;3.70;99.90
4566;DHT22;2295;51.050;14.608;2023-12-20T01:43:58;3.80;99.90
4566;DHT22;2295;51.050;14.608;2023-12-20T01:46:30;3.80;99.90
4566;DHT22;2295;51.050;14.608;2023-12-20T01:48:59;3.70;99.90
4566;DHT22;2295;51.050;14.608;2023-12-20T01:51:29;3.70;99.90
4566;DHT22;2295;51.050;14.608;2023-12-20T01:53:58;3.70;99.90
4566;DHT22;2295;51.050;14.608;2023-12-20T01:56:47;3.70;99.90
4566;DHT22;2295;51.050;14.608;2023-12-20T01:59:18;3.60;99.90
4566;DHT22;2295;51.050;14.608;2023-12-20T02:01:47;3.60;99.90
4566;DHT22;2295;51.050;14.608;2023-12-20T02:04:16;3.60;99.90
4566;DHT22;2295;51.050;14.608;2023-12-20T02:06:46;3.60;99.90
4566;DHT22;2295;51.050;14.608;2023-12-20T02:09:18;3.60;99.90
4566;DHT22;2295;51.050;14.608;2023-12-20T02:11:47;3.60;99.90
4566;DHT22;2295;51.050;14.608;2023-12-20T02:14:15;3.50;99.90
4566;DHT22;2295;51.050;14.608;2023-12-20T02:16:44;3.50;99.90
4566;DHT22;2295;51.050;14.608;2023-12-20T02:19:13;3.50;99.90
4566;DHT22;2295;51.050;14.608;2023-12-20T02:22:05;3.50;99.90
4566;DHT22;2295;51.050;14.608;2023-12-20T02:24:33;3.50;99.90
4566;DHT22;2295;51.050;14.608;2023-12-20T02:27:03;3.50;99.90
4566;DHT22;2295;51.050;14.608;2023-12-20T02:29:32;3.40;99.90
4566;DHT22;2295;51.050;14.608;2023-12-20T02:32:01;3.40;99.90
4566;DHT22;2295;51.050;14.608;2023-12-20T02:34:30;3.40;99.90
4566;DHT22;2295;51.050;14.608;2023-12-20T02:37:00;3.40;99.90
4566;DHT22;2295;51.050;14.608;2023-12-20T02:39:30;3.30;99.90
4566;DHT22;2295;51.050;14.608;2023-12-20T02:42:10;3.30;99.90
4566;DHT22;2295;51.050;14.608;2023-12-20T02:44:39;3.30;99.90
4566;DHT22;2295;51.050;14.608;2023-12-20T02:47:07;3.30;99.90
4566;DHT22;2295;51.050;14.608;2023-12-20T02:49:36;3.30;99.90
4566;DHT22;2295;51.050;14.608;2023-12-20T02:52:06;3.30;99.90
4566;DHT22;2295;51.050;14.608;2023-12-20T02:54:35;3.30;99.90
4566;DHT22;2295;51.050;14.608;2023-12-20T02:57:03;3.20;99.90
4566;DHT22;2295;51.050;14.608;2023-12-20T02:59:32;3.20;99.90
4566;DHT22;2295;51.050;14.608;2023-12-20T03:02:02;3.20;99.90
4566;DHT22;2295;51.050;14.608;2023-12-20T03:04:30;3.20;99.90
4566;DHT22;2295;51.050;14.608;2023-12-20T03:07:02;3.20;99.90
4566;DHT22;2295;51.050;14.608;2023-12-20T03:09:32;3.20;99.90
4566;DHT22;2295;51.050;14.608;2023-12-20T03:12:20;3.10;99.90
4566;DHT22;2295;51.050;14.608;2023-12-20T03:14:49;3.10;99.90
4566;DHT22;2295;51.050;14.608;2023-12-20T03:17:17;3.10;99.90
4566;DHT22;2295;51.050;14.608;2023-12-20T03:19:49;3.10;99.90
4566;DHT22;2295;51.050;14.608;2023-12-20T03:22:18;3.10;99.90
4566;DHT22;2295;51.050;14.608;2023-12-20T03:24:58;3.10;99.90
4566;DHT22;2295;51.050;14.608;2023-12-20T03:27:26;3.10;99.90
4566;DHT22;2295;51.050;14.608;2023-12-20T03:29:55;3.10;99.90
4566;DHT22;2295;51.050;14.608;2023-12-20T03:32:33;3.10;99.90
4566;DHT22;2295;51.050;14.608;2023-12-20T03:35:01;3.10;99.90
4566;DHT22;2295;51.050;14.608;2023-12-20T03:37:30;3.10;99.90
4566;DHT22;2295;51.050;14.608;2023-12-20T03:40:00;3.10;99.90
4566;DHT22;2295;51.050;14.608;2023-12-20T03:42:53;3.10;99.90
4566;DHT22;2295;51.050;14.608;2023-12-20T03:45:27;3.10;99.90
4566;DHT22;2295;51.050;14.608;2023-12-20T03:47:55;3.10;99.90
4566;DHT22;2295;51.050;14.608;2023-12-20T03:50:24;3.10;99.90
4566;DHT22;2295;51.050;14.608;2023-12-20T03:52:53;3.00;99.90
4566;DHT22;2295;51.050;14.608;2023-12-20T03:55:23;3.00;99.90
4566;DHT22;2295;51.050;14.608;2023-12-20T03:57:51;3.00;99.90
4566;DHT22;2295;51.050;14.608;2023-12-20T04:00:38;3.00;99.90
4566;DHT22;2295;51.050;14.608;2023-12-20T04:03:07;3.00;99.90
4566;DHT22;2295;51.050;14.608;2023-12-20T04:05:48;3.00;99.90
4566;DHT22;2295;51.050;14.608;2023-12-20T04:08:20;3.00;99.90
4566;DHT22;2295;51.050;14.608;2023-12-20T04:10:50;3.10;99.90
4566;DHT22;2295;51.050;14.608;2023-12-20T04:13:38;3.00;99.90
4566;DHT22;2295;51.050;14.608;2023-12-20T04:16:07;3.00;99.90
4566;DHT22;2295;51.050;14.608;2023-12-20T04:18:35;3.00;99.90
4566;DHT22;2295;51.050;14.608;2023-12-20T04:21:04;3.00;99.90
4566;DHT22;2295;51.050;14.608;2023-12-20T04:23:32;3.00;99.90
4566;DHT22;2295;51.050;14.608;2023-12-20T04:26:05;3.00;99.90
4566;DHT22;2295;51.050;14.608;2023-12-20T04:28:48;3.00;99.90
4566;DHT22;2295;51.050;14.608;2023-12-20T04:31:20;3.00;99.90
4566;DHT22;2295;51.050;14.608;2023-12-20T04:33:48;3.00;99.90
4566;DHT22;2295;51.050;14.608;2023-12-20T04:36:20;2.90;99.90
4566;DHT22;2295;51.050;14.608;2023-12-20T04:38:48;2.90;99.90
4566;DHT22;2295;51.050;14.608;2023-12-20T04:41:18;2.90;99.90
4566;DHT22;2295;51.050;14.608;2023-12-20T04:43:47;2.90;99.90
4566;DHT22;2295;51.050;14.608;2023-12-20T04:46:21;2.90;99.90
4566;DHT22;2295;51.050;14.608;2023-12-20T04:48:49;2.90;99.90
4566;DHT22;2295;51.050;14.608;2023-12-20T04:51:18;2.90;99.90
4566;DHT22;2295;51.050;14.608;2023-12-20T04:53:46;2.90;99.90
4566;DHT22;2295;51.050;14.608;2023-12-20T04:56:14;2.90;99.90
4566;DHT22;2295;51.050;14.608;2023-12-20T04:58:45;2.90;99.90
4566;DHT22;2295;51.050;14.608;2023-12-20T05:01:16;3.00;99.90
4566;DHT22;2295;51.050;14.608;2023-12-20T05:03:45;3.00;99.90
4566;DHT22;2295;51.050;14.608;2023-12-20T05:06:13;3.00;99.90
4566;DHT22;2295;51.050;14.608;2023-12-20T05:08:41;3.00;99.90
4566;DHT22;2295;51.050;14.608;2023-12-20T05:11:10;3.00;99.90
4566;DHT22;2295;51.050;14.608;2023-12-20T05:13:41;3.00;99.90
4566;DHT22;2295;51.050;14.608;2023-12-20T05:16:18;3.00;99.90
4566;DHT22;2295;51.050;14.608;2023-12-20T05:21:41;3.00;99.90
4566;DHT22;2295;51.050;14.608;2023-12-20T05:24:09;3.00;99.90
4566;DHT22;2295;51.050;14.608;2023-12-20T05:26:37;3.00;99.90
4566;DHT22;2295;51.050;14.608;2023-12-20T05:29:09;3.00;99.90
4566;DHT22;2295;51.050;14.608;2023-12-20T05:32:02;3.00;99.90
4566;DHT22;2295;51.050;14.608;2023-12-20T05:34:31;3.00;99.90
4566;DHT22;2295;51.050;14.608;2023-12-20T05:37:00;3.00;99.90
4566;DHT22;2295;51.050;14.608;2023-12-20T05:39:33;3.00;99.90
4566;DHT22;2295;51.050;14.608;2023-12-20T05:42:01;3.10;99.90
4566;DHT22;2295;51.050;14.608;2023-12-20T05:44:29;3.10;99.90
4566;DHT22;2295;51.050;14.608;2023-12-20T05:47:07;3.00;99.90
4566;DHT22;2295;51.050;14.608;2023-12-20T05:49:35;3.00;99.90
4566;DHT22;2295;51.050;14.608;2023-12-20T05:52:04;3.00;99.90
4566;DHT22;2295;51.050;14.608;2023-12-20T05:54:32;3.00;99.90
4566;DHT22;2295;51.050;14.608;2023-12-20T05:57:08;3.10;99.90
4566;DHT22;2295;51.050;14.608;2023-12-20T05:59:37;3.00;99.90
4566;DHT22;2295;51.050;14.608;2023-12-20T06:02:09;3.00;99.90
4566;DHT22;2295;51.050;14.608;2023-12-20T06:04:42;3.10;99.90
4566;DHT22;2295;51.050;14.608;2023-12-20T06:07:11;3.10;99.90
4566;DHT22;2295;51.050;14.608;2023-12-20T06:09:43;3.10;99.90
4566;DHT22;2295;51.050;14.608;2023-12-20T06:12:15;3.10;99.90
4566;DHT22;2295;51.050;14.608;2023-12-20T06:14:43;3.10;99.90
4566;DHT22;2295;51.050;14.608;2023-12-20T06:17:15;3.10;99.90
4566;DHT22;2295;51.050;14.608;2023-12-20T06:19:43;3.10;99.90
4566;DHT22;2295;51.050;14.608;2023-12-20T06:22:15;3.10;99.90
4566;DHT22;2295;51.050;14.608;2023-12-20T06:24:55;3.10;99.90
4566;DHT22;2295;51.050;14.608;2023-12-20T06:27:24;3.10;99.90
4566;DHT22;2295;51.050;14.608;2023-12-20T06:30:13;3.10;99.90
4566;DHT22;2295;51.050;14.608;2023-12-20T06:32:42;3.10;99.90
4566;DHT22;2295;51.050;14.608;2023-12-20T06:35:11;3.10;99.90
4566;DHT22;2295;51.050;14.608;2023-12-20T06:37:59;3.10;99.90
4566;DHT22;2295;51.050;14.608;2023-12-20T06:40:48;3.20;99.90
4566;DHT22;2295;51.050;14.608;2023-12-20T06:43:27;3.20;99.90
4566;DHT22;2295;51.050;14.608;2023-12-20T06:46:15;3.20;99.90
4566;DHT22;2295;51.050;14.608;2023-12-20T06:48:46;3.20;99.90
4566;DHT22;2295;51.050;14.608;2023-12-20T06:51:16;3.20;99.90
4566;DHT22;2295;51.050;14.608;2023-12-20T06:53:49;3.20;99.90
4566;DHT22;2295;51.050;14.608;2023-12-20T06:56:20;3.20;99.90
4566;DHT22;2295;51.050;14.608;2023-12-20T06:58:49;3.20;99.90
4566;DHT22;2295;51.050;14.608;2023-12-20T07:01:17;3.30;99.90
4566;DHT22;2295;51.050;14.608;2023-12-20T07:03:54;3.20;99.90
4566;DHT22;2295;51.050;14.608;2023-12-20T07:06:22;3.20;99.90
4566;DHT22;2295;51.050;14.608;2023-12-20T07:08:53;3.30;99.90
4566;DHT22;2295;51.050;14.608;2023-12-20T07:11:43;3.30;99.90
4566;DHT22;2295;51.050;14.608;2023-12-20T07:14:12;3.30;99.90
4566;DHT22;2295;51.050;14.608;2023-12-20T07:16:40;3.30;99.90
4566;DHT22;2295;51.050;14.608;2023-12-20T07:19:13;3.30;99.90
4566;DHT22;2295;51.050;14.608;2023-12-20T07:21:43;3.30;99.90
4566;DHT22;2295;51.050;14.608;2023-12-20T07:24:11;3.30;99.90
4566;DHT22;2295;51.050;14.608;2023-12-20T07:26:48;3.30;99.90
4566;DHT22;2295;51.050;14.608;2023-12-20T07:29:17;3.30;99.90
4566;DHT22;2295;51.050;14.608;2023-12-20T07:31:46;3.30;99.90
4566;DHT22;2295;51.050;14.608;2023-12-20T07:34:16;3.30;99.90
4566;DHT22;2295;51.050;14.608;2023-12-20T07:36:44;3.30;99.90
4566;DHT22;2295;51.050;14.608;2023-12-20T07:39:15;3.30;99.90
4566;DHT22;2295;51.050;14.608;2023-12-20T07:41:43;3.40;99.90
4566;DHT22;2295;51.050;14.608;2023-12-20T07:44:33;3.30;99.90
4566;DHT22;2295;51.050;14.608;2023-12-20T07:47:03;3.30;99.90
4566;DHT22;2295;51.050;14.608;2023-12-20T07:49:33;3.30;99.90
4566;DHT22;2295;51.050;14.608;2023-12-20T07:52:01;3.30;99.90
4566;DHT22;2295;51.050;14.608;2023-12-20T07:54:30;3.30;99.90
4566;DHT22;2295;51.050;14.608;2023-12-20T07:56:58;3.30;99.90
4566;DHT22;2295;51.050;14.608;2023-12-20T07:59:42;3.30;99.90
4566;DHT22;2295;51.050;14.608;2023-12-20T08:02:31;3.30;99.90
4566;DHT22;2295;51.050;14.608;2023-12-20T08:05:01;3.40;99.90
4566;DHT22;2295;51.050;14.608;2023-12-20T08:07:30;3.30;99.90
4566;DHT22;2295;51.050;14.608;2023-12-20T08:10:08;3.30;99.90
4566;DHT22;2295;51.050;14.608;2023-12-20T08:12:41;3.30;99.90
4566;DHT22;2295;51.050;14.608;2023-12-20T08:15:10;3.30;99.90
4566;DHT22;2295;51.050;14.608;2023-12-20T08:17:38;3.30;99.90
4566;DHT22;2295;51.050;14.608;2023-12-20T08:20:09;3.30;99.90
4566;DHT22;2295;51.050;14.608;2023-12-20T08:22:39;3.20;99.90
4566;DHT22;2295;51.050;14.608;2023-12-20T08:25:08;3.10;99.90
4566;DHT22;2295;51.050;14.608;2023-12-20T08:27:39;3.10;99.90
4566;DHT22;2295;51.050;14.608;2023-12-20T08:30:09;3.10;99.90
4566;DHT22;2295;51.050;14.608;2023-12-20T08:32:38;3.20;99.90
4566;DHT22;2295;51.050;14.608;2023-12-20T08:35:08;3.30;99.90
4566;DHT22;2295;51.050;14.608;2023-12-20T08:37:37;3.30;99.90
4566;DHT22;2295;51.050;14.608;2023-12-20T08:40:06;3.30;99.90
4566;DHT22;2295;51.050;14.608;2023-12-20T08:42:35;3.30;99.90
4566;DHT22;2295;51.050;14.608;2023-12-20T08:45:04;3.30;99.90
4566;DHT22;2295;51.050;14.608;2023-12-20T08:47:33;3.30;99.90
4566;DHT22;2295;51.050;14.608;2023-12-20T08:50:02;3.30;99.90
4566;DHT22;2295;51.050;14.608;2023-12-20T08:52:34;3.30;99.90
4566;DHT22;2295;51.050;14.608;2023-12-20T08:55:03;3.20;99.90
4566;DHT22;2295;51.050;14.608;2023-12-20T08:57:31;3.20;99.90
4566;DHT22;2295;51.050;14.608;2023-12-20T09:00:00;3.20;99.90
4566;DHT22;2295;51.050;14.608;2023-12-20T09:02:29;3.20;99.90
4566;DHT22;2295;51.050;14.608;2023-12-20T09:04:57;3.40;99.90
4566;DHT22;2295;51.050;14.608;2023-12-20T09:07:26;3.60;99.90
4566;DHT22;2295;51.050;14.608;2023-12-20T09:09:59;3.80;99.90
4566;DHT22;2295;51.050;14.608;2023-12-20T09:12:27;3.90;99.90
4566;DHT22;2295;51.050;14.608;2023-12-20T09:14:59;3.90;99.90
4566;DHT22;2295;51.050;14.608;2023-12-20T09:17:29;3.80;99.90
4566;DHT22;2295;51.050;14.608;2023-12-20T09:20:00;3.80;99.90
4566;DHT22;2295;51.050;14.608;2023-12-20T09:22:29;3.80;99.90
4566;DHT22;2295;51.050;14.608;2023-12-20T09:24:59;3.80;99.90
4566;DHT22;2295;51.050;14.608;2023-12-20T09:27:28;3.80;99.90
4566;DHT22;2295;51.050;14.608;2023-12-20T09:29:57;3.70;99.90
4566;DHT22;2295;51.050;14.608;2023-12-20T09:32:25;3.70;99.90
4566;DHT22;2295;51.050;14.608;2023-12-20T09:34:54;3.70;99.90
4566;DHT22;2295;51.050;14.608;2023-12-20T09:37:55;3.70;99.90
4566;DHT22;2295;51.050;14.608;2023-12-20T09:40:26;3.80;99.90
4566;DHT22;2295;51.050;14.608;2023-12-20T09:42:57;3.80;99.90
4566;DHT22;2295;51.050;14.608;2023-12-20T09:45:25;3.80;99.90
4566;DHT22;2295;51.050;14.608;2023-12-20T09:47:58;3.90;99.90
4566;DHT22;2295;51.050;14.608;2023-12-20T09:50:27;3.90;99.90
4566;DHT22;2295;51.050;14.608;2023-12-20T09:52:58;4.00;99.90
4566;DHT22;2295;51.050;14.608;2023-12-20T09:55:47;4.00;99.90
4566;DHT22;2295;51.050;14.608;2023-12-20T09:58:16;4.10;99.90
4566;DHT22;2295;51.050;14.608;2023-12-20T10:00:44;4.10;99.90
4566;DHT22;2295;51.050;14.608;2023-12-20T10:03:15;4.10;99.90
4566;DHT22;2295;51.050;14.608;2023-12-20T10:05:44;4.10;99.90
4566;DHT22;2295;51.050;14.608;2023-12-20T10:08:14;4.10;99.90
4566;DHT22;2295;51.050;14.608;2023-12-20T10:10:59;4.20;99.90
4566;DHT22;2295;51.050;14.608;2023-12-20T10:13:30;4.20;99.90
4566;DHT22;2295;51.050;14.608;2023-12-20T10:15:59;4.10;99.90
4566;DHT22;2295;51.050;14.608;2023-12-20T10:18:29;4.10;99.90
4566;DHT22;2295;51.050;14.608;2023-12-20T10:21:06;4.00;99.90
4566;DHT22;2295;51.050;14.608;2023-12-20T10:24:22;4.00;99.90
4566;DHT22;2295;51.050;14.608;2023-12-20T10:27:03;4.10;99.90
4566;DHT22;2295;51.050;14.608;2023-12-20T10:29:33;4.40;99.90
4566;DHT22;2295;51.050;14.608;2023-12-20T10:32:25;4.70;99.90
4566;DHT22;2295;51.050;14.608;2023-12-20T10:34:55;4.90;99.90
4566;DHT22;2295;51.050;14.608;2023-12-20T10:37:26;5.10;99.90
4566;DHT22;2295;51.050;14.608;2023-12-20T10:39:55;5.20;99.90
4566;DHT22;2295;51.050;14.608;2023-12-20T10:42:27;5.30;99.90
4566;DHT22;2295;51.050;14.608;2023-12-20T10:44:56;5.30;99.90
4566;DHT22;2295;51.050;14.608;2023-12-20T10:47:25;5.30;99.90
4566;DHT22;2295;51.050;14.608;2023-12-20T10:49:56;5.20;99.90
4566;DHT22;2295;51.050;14.608;2023-12-20T10:52:29;5.20;99.90
4566;DHT22;2295;51.050;14.608;2023-12-20T10:54:59;5.20;99.90
4566;DHT22;2295;51.050;14.608;2023-12-20T10:57:29;5.20;99.90
4566;DHT22;2295;51.050;14.608;2023-12-20T11:00:01;5.20;99.90
4566;DHT22;2295;51.050;14.608;2023-12-20T11:02:40;5.20;99.90
4566;DHT22;2295;51.050;14.608;2023-12-20T11:05:22;5.10;99.90
4566;DHT22;2295;51.050;14.608;2023-12-20T11:07:57;5.10;99.90
4566;DHT22;2295;51.050;14.608;2023-12-20T11:10:31;5.10;99.90
4566;DHT22;2295;51.050;14.608;2023-12-20T11:13:10;5.10;99.90
4566;DHT22;2295;51.050;14.608;2023-12-20T11:15:42;5.00;99.90
4566;DHT22;2295;51.050;14.608;2023-12-20T11:18:10;5.00;99.90
4566;DHT22;2295;51.050;14.608;2023-12-20T11:20:40;4.90;99.90
4566;DHT22;2295;51.050;14.608;2023-12-20T11:23:10;4.90;99.90
4566;DHT22;2295;51.050;14.608;2023-12-20T11:25:50;4.80;99.90
4566;DHT22;2295;51.050;14.608;2023-12-20T11:28:23;4.80;99.90
4566;DHT22;2295;51.050;14.608;2023-12-20T11:30:53;4.90;99.90
4566;DHT22;2295;51.050;14.608;2023-12-20T11:33:22;4.90;99.90
4566;DHT22;2295;51.050;14.608;2023-12-20T11:35:56;5.00;99.90
4566;DHT22;2295;51.050;14.608;2023-12-20T11:38:25;5.10;99.90
4566;DHT22;2295;51.050;14.608;2023-12-20T11:40:54;5.10;99.90
4566;DHT22;2295;51.050;14.608;2023-12-20T11:43:38;5.10;99.90
4566;DHT22;2295;51.050;14.608;2023-12-20T11:46:08;5.00;99.90
4566;DHT22;2295;51.050;14.608;2023-12-20T11:48:38;5.10;99.90
4566;DHT22;2295;51.050;14.608;2023-12-20T11:51:10;5.10;99.90
4566;DHT22;2295;51.050;14.608;2023-12-20T11:53:39;5.10;99.90
4566;DHT22;2295;51.050;14.608;2023-12-20T11:56:07;5.00;99.90
4566;DHT22;2295;51.050;14.608;2023-12-20T11:58:40;5.00;99.90
4566;DHT22;2295;51.050;14.608;2023-12-20T12:01:10;5.00;99.90
4566;DHT22;2295;51.050;14.608;2023-12-20T12:03:47;5.00;99.90
4566;DHT22;2295;51.050;14.608;2023-12-20T12:06:15;5.00;99.90
4566;DHT22;2295;51.050;14.608;2023-12-20T12:08:44;5.00;99.90
4566;DHT22;2295;51.050;14.608;2023-12-20T12:11:13;5.00;99.90
4566;DHT22;2295;51.050;14.608;2023-12-20T12:13:48;5.00;99.90
4566;DHT22;2295;51.050;14.608;2023-12-20T12:16:20;5.00;99.90
4566;DHT22;2295;51.050;14.608;2023-12-20T12:18:58;4.90;99.90
4566;DHT22;2295;51.050;14.608;2023-12-20T12:21:27;5.00;99.90
4566;DHT22;2295;51.050;14.608;2023-12-20T12:24:19;5.00;99.90
4566;DHT22;2295;51.050;14.608;2023-12-20T12:26:53;4.90;99.90
4566;DHT22;2295;51.050;14.608;2023-12-20T12:30:00;5.00;99.90
4566;DHT22;2295;51.050;14.608;2023-12-20T12:32:28;5.00;99.90
4566;DHT22;2295;51.050;14.608;2023-12-20T12:34:57;5.00;99.90
4566;DHT22;2295;51.050;14.608;2023-12-20T12:37:25;5.00;99.90
4566;DHT22;2295;51.050;14.608;2023-12-20T12:39:54;5.00;99.90
4566;DHT22;2295;51.050;14.608;2023-12-20T12:42:23;4.90;99.90
4566;DHT22;2295;51.050;14.608;2023-12-20T12:44:57;4.80;99.90
4566;DHT22;2295;51.050;14.608;2023-12-20T12:47:31;4.90;99.90
4566;DHT22;2295;51.050;14.608;2023-12-20T12:50:03;4.90;99.90
4566;DHT22;2295;51.050;14.608;2023-12-20T12:52:31;5.10;99.90
4566;DHT22;2295;51.050;14.608;2023-12-20T12:55:00;5.10;99.90
4566;DHT22;2295;51.050;14.608;2023-12-20T12:57:31;5.10;99.90
4566;DHT22;2295;51.050;14.608;2023-12-20T13:00:02;5.00;99.90
4566;DHT22;2295;51.050;14.608;2023-12-20T13:02:32;5.00;99.90
4566;DHT22;2295;51.050;14.608;2023-12-20T13:05:00;4.90;99.90
4566;DHT22;2295;51.050;14.608;2023-12-20T13:07:30;4.80;99.90
4566;DHT22;2295;51.050;14.608;2023-12-20T13:09:58;4.80;99.90
4566;DHT22;2295;51.050;14.608;2023-12-20T13:12:27;4.80;99.90
4566;DHT22;2295;51.050;14.608;2023-12-20T13:14:55;5.00;99.90
4566;DHT22;2295;51.050;14.608;2023-12-20T13:17:25;5.10;99.90
4566;DHT22;2295;51.050;14.608;2023-12-20T13:20:00;5.10;99.90
4566;DHT22;2295;51.050;14.608;2023-12-20T13:22:32;5.20;99.90
4566;DHT22;2295;51.050;14.608;2023-12-20T13:25:04;5.10;99.90
4566;DHT22;2295;51.050;14.608;2023-12-20T13:27:33;5.10;99.90
4566;DHT22;2295;51.050;14.608;2023-12-20T13:30:02;5.00;99.90
4566;DHT22;2295;51.050;14.608;2023-12-20T13:32:32;5.00;99.90
4566;DHT22;2295;51.050;14.608;2023-12-20T13:35:00;4.90;99.90
4566;DHT22;2295;51.050;14.608;2023-12-20T13:37:29;5.00;99.90
4566;DHT22;2295;51.050;14.608;2023-12-20T13:40:08;5.00;99.90
4566;DHT22;2295;51.050;14.608;2023-12-20T13:42:40;5.10;99.90
4566;DHT22;2295;51.050;14.608;2023-12-20T13:45:12;5.10;99.90
4566;DHT22;2295;51.050;14.608;2023-12-20T13:47:42;5.10;99.90
4566;DHT22;2295;51.050;14.608;2023-12-20T13:50:12;5.10;99.90
4566;DHT22;2295;51.050;14.608;2023-12-20T13:52:41;5.10;99.90
4566;DHT22;2295;51.050;14.608;2023-12-20T13:55:09;5.00;99.90
4566;DHT22;2295;51.050;14.608;2023-12-20T13:57:38;5.00;99.90
4566;DHT22;2295;51.050;14.608;2023-12-20T14:00:11;4.90;99.90
4566;DHT22;2295;51.050;14.608;2023-12-20T14:02:43;4.90;99.90
4566;DHT22;2295;51.050;14.608;2023-12-20T14:05:13;4.90;99.90
4566;DHT22;2295;51.050;14.608;2023-12-20T14:07:45;4.90;99.90
4566;DHT22;2295;51.050;14.608;2023-12-20T14:10:16;4.90;99.90
4566;DHT22;2295;51.050;14.608;2023-12-20T14:12:48;4.90;99.90
4566;DHT22;2295;51.050;14.608;2023-12-20T14:15:20;4.80;99.90
4566;DHT22;2295;51.050;14.608;2023-12-20T14:17:49;4.80;99.90
4566;DHT22;2295;51.050;14.608;2023-12-20T14:20:19;4.80;99.90
4566;DHT22;2295;51.050;14.608;2023-12-20T14:22:51;4.70;99.90
4566;DHT22;2295;51.050;14.608;2023-12-20T14:25:19;4.70;99.90
4566;DHT22;2295;51.050;14.608;2023-12-20T14:27:50;4.70;99.90
4566;DHT22;2295;51.050;14.608;2023-12-20T14:30:18;4.70;99.90
4566;DHT22;2295;51.050;14.608;2023-12-20T14:32:48;4.70;99.90
4566;DHT22;2295;51.050;14.608;2023-12-20T14:35:17;4.80;99.90
4566;DHT22;2295;51.050;14.608;2023-12-20T14:37:46;4.70;99.90
4566;DHT22;2295;51.050;14.608;2023-12-20T14:40:15;4.70;99.90
4566;DHT22;2295;51.050;14.608;2023-12-20T14:42:47;4.70;99.90
4566;DHT22;2295;51.050;14.608;2023-12-20T14:45:16;4.60;99.90
4566;DHT22;2295;51.050;14.608;2023-12-20T14:47:45;4.70;99.90
4566;DHT22;2295;51.050;14.608;2023-12-20T14:50:17;4.70;99.90
4566;DHT22;2295;51.050;14.608;2023-12-20T14:52:46;4.60;99.90
4566;DHT22;2295;51.050;14.608;2023-12-20T14:55:16;4.60;99.90
4566;DHT22;2295;51.050;14.608;2023-12-20T14:57:46;4.60;99.90
4566;DHT22;2295;51.050;14.608;2023-12-20T15:00:19;4.60;99.90
4566;DHT22;2295;51.050;14.608;2023-12-20T15:02:49;4.50;99.90
4566;DHT22;2295;51.050;14.608;2023-12-20T15:05:21;4.50;99.90
4566;DHT22;2295;51.050;14.608;2023-12-20T15:07:50;4.40;99.90
4566;DHT22;2295;51.050;14.608;2023-12-20T15:10:21;4.40;99.90
4566;DHT22;2295;51.050;14.608;2023-12-20T15:12:50;4.50;99.90
4566;DHT22;2295;51.050;14.608;2023-12-20T15:15:25;4.50;99.90
4566;DHT22;2295;51.050;14.608;2023-12-20T15:17:55;4.50;99.90
4566;DHT22;2295;51.050;14.608;2023-12-20T15:20:25;4.50;99.90
4566;DHT22;2295;51.050;14.608;2023-12-20T15:23:02;4.50;99.90
4566;DHT22;2295;51.050;14.608;2023-12-20T15:25:33;4.50;99.90
4566;DHT22;2295;51.050;14.608;2023-12-20T15:28:03;4.60;99.90
4566;DHT22;2295;51.050;14.608;2023-12-20T15:30:33;4.50;99.90
4566;DHT22;2295;51.050;14.608;2023-12-20T15:33:10;4.50;99.90
4566;DHT22;2295;51.050;14.608;2023-12-20T15:35:40;4.50;99.90
4566;DHT22;2295;51.050;14.608;2023-12-20T15:38:11;4.40;99.90
4566;DHT22;2295;51.050;14.608;2023-12-20T15:40:40;4.50;99.90
4566;DHT22;2295;51.050;14.608;2023-12-20T15:43:09;4.50;99.90
4566;DHT22;2295;51.050;14.608;2023-12-20T15:45:37;4.50;99.90
4566;DHT22;2295;51.050;14.608;2023-12-20T15:48:07;4.50;99.90
4566;DHT22;2295;51.050;14.608;2023-12-20T15:50:46;4.50;99.90
4566;DHT22;2295;51.050;14.608;2023-12-20T15:53:14;4.60;99.90
4566;DHT22;2295;51.050;14.608;2023-12-20T15:55:43;4.60;99.90
4566;DHT22;2295;51.050;14.608;2023-12-20T15:58:12;4.50;99.90
4566;DHT22;2295;51.050;14.608;2023-12-20T16:00:43;4.60;99.90
4566;DHT22;2295;51.050;14.608;2023-12-20T16:03:11;4.60;99.90
4566;DHT22;2295;51.050;14.608;2023-12-20T16:05:53;4.40;99.90
4566;DHT22;2295;51.050;14.608;2023-12-20T16:08:21;4.30;99.90
4566;DHT22;2295;51.050;14.608;2023-12-20T16:10:50;4.30;99.90
4566;DHT22;2295;51.050;14.608;2023-12-20T16:13:27;4.20;99.90
4566;DHT22;2295;51.050;14.608;2023-12-20T16:16:01;4.30;99.90
4566;DHT22;2295;51.050;14.608;2023-12-20T16:18:35;4.20;99.90
4566;DHT22;2295;51.050;14.608;2023-12-20T16:21:05;4.10;99.90
4566;DHT22;2295;51.050;14.608;2023-12-20T16:23:33;4.20;99.90
4566;DHT22;2295;51.050;14.608;2023-12-20T16:26:02;4.30;99.90
4566;DHT22;2295;51.050;14.608;2023-12-20T16:28:39;4.30;99.90
4566;DHT22;2295;51.050;14.608;2023-12-20T16:31:08;4.40;99.90
4566;DHT22;2295;51.050;14.608;2023-12-20T16:33:40;4.30;99.90